メインページ
METAR-TAF:

METAR-TAF

空港 :

ローラン・ギャロス空港

サン=ドニ, レユニオン

緯度: 20-53S, 経度: 055-31E, 海抜: 21m

現時点の気象観測

当レポートは21分前の09:00(UTC)に作成
の風 14kt
気温 27°C
湿度 62%
気圧 1019 hPa
視程10km以上
高度2600ftの雲はほとんどない
高度5300ftの雲は散在している

METAR: FMEE 200900Z 08014KT 9999 FEW026 SCT053 27/19 Q1019 NOSIG

時間: 13:21 (09:21 UTC)

予報

当レポートは4時間21分前の05:00(UTC)に作成
予報は20日の 06時(UTC)から 21日の 12時(UTC)まで有効
東/南東の風 10kt
視程10km以上
高度3000ftの雲は散在している
20日の 14時(UTC)から 20日の 16時(UTC)まで徐々に
の風 5kt
21日の 04時(UTC)から 21日の 06時(UTC)まで徐々に
の風 10kt

TAF: FMEE 200500Z 2006/2112 11010KT 9999 SCT030 BECMG 2014/2016 17005KT BECMG 2104/2106 09010KT

4,000以上の空港の気象観測と天気予報(METAR報とTAF報)

利用可能な観測所は地図上に黄色い丸と赤い丸で示す。

丸の上にカーソルを重ねると観測所名を参照できる。

次にクリックすると気象観測と天気予報を参照できる。

マップの切り替え:黒色「×」印の緑ボタンをクリックして拡大、「-」印の緑ボタンをクリックして縮小、緑色の三角印をクリックして隣りの地図に切り替え


METAR-TAF: